createdAt,value
2023-04-24T00:01:46.131Z,4.57
2023-04-24T00:06:52.387Z,5.00
2023-04-24T00:11:57.846Z,4.70
2023-04-24T00:17:06.287Z,4.73
2023-04-24T00:22:12.197Z,5.17
2023-04-24T00:27:17.605Z,4.47
2023-04-24T00:32:25.476Z,4.60
2023-04-24T00:37:30.806Z,5.73
2023-04-24T00:42:36.582Z,4.50
2023-04-24T00:47:46.154Z,4.93
2023-04-24T00:52:51.906Z,5.17
2023-04-24T00:57:57.356Z,4.83
2023-04-24T01:03:08.860Z,5.60
2023-04-24T01:08:14.375Z,5.03
2023-04-24T01:13:19.564Z,4.80
2023-04-24T01:18:28.025Z,5.00
2023-04-24T01:23:36.048Z,5.33
2023-04-24T01:28:41.827Z,5.50
2023-04-24T01:33:47.179Z,5.17
2023-04-24T01:38:57.909Z,5.70
2023-04-24T01:44:05.305Z,5.70
2023-04-24T01:49:10.834Z,5.90
2023-04-24T01:54:19.697Z,5.90
2023-04-24T01:59:25.732Z,5.37
2023-04-24T02:04:31.117Z,5.57
2023-04-24T02:09:38.880Z,5.70
2023-04-24T02:14:44.703Z,4.80
2023-04-24T02:19:50.013Z,5.27
2023-04-24T02:24:58.260Z,5.40
2023-04-24T02:30:05.685Z,5.73
2023-04-24T02:35:12.078Z,5.53
2023-04-24T02:40:19.866Z,6.50
2023-04-24T02:45:25.548Z,6.37
2023-04-24T02:50:30.689Z,7.47
2023-04-24T02:55:38.409Z,5.73
2023-04-24T03:00:44.528Z,6.63
2023-04-24T03:05:49.685Z,6.70
2023-04-24T03:10:57.738Z,6.23
2023-04-24T03:16:06.285Z,6.83
2023-04-24T03:21:11.381Z,4.70
2023-04-24T03:26:19.791Z,5.27
2023-04-24T03:31:39.496Z,4.20
2023-04-24T03:36:45.271Z,3.50
2023-04-24T03:41:53.276Z,3.20
2023-04-24T03:47:03.390Z,3.20
2023-04-24T03:52:10.329Z,2.60
2023-04-24T03:57:18.327Z,3.77
2023-04-24T04:02:35.788Z,3.10
2023-04-24T04:07:41.024Z,2.67
2023-04-24T04:12:50.581Z,2.13
2023-04-24T04:17:56.211Z,2.07
2023-04-24T04:23:03.938Z,2.23
2023-04-24T04:28:33.009Z,2.10
2023-04-24T04:33:43.611Z,1.67
2023-04-24T04:38:49.853Z,1.57
2023-04-24T04:44:14.464Z,1.73
2023-04-24T04:49:22.793Z,2.47
2023-04-24T04:54:28.009Z,2.37
2023-04-24T04:59:38.375Z,1.63
2023-04-24T05:04:49.288Z,1.60
2023-04-24T05:09:57.579Z,1.50
2023-04-24T05:15:06.097Z,1.50
2023-04-24T05:20:14.788Z,2.40
2023-04-24T05:25:20.956Z,2.40
2023-04-24T05:30:42.854Z,1.40
2023-04-24T05:35:56.384Z,2.87
2023-04-24T05:41:04.471Z,3.60
2023-04-24T05:46:15.488Z,6.83
2023-04-24T05:51:21.973Z,3.60
2023-04-24T05:56:28.656Z,8.07
2023-04-24T06:01:37.753Z,2.03
2023-04-24T06:06:57.016Z,1.63
2023-04-24T06:12:10.570Z,2.07
2023-04-24T06:17:36.178Z,2.40
2023-04-24T06:22:41.681Z,1.53
2023-04-24T06:27:48.706Z,1.60
2023-04-24T06:33:03.123Z,1.60
2023-04-24T06:38:13.160Z,1.63
2023-04-24T06:43:20.814Z,1.77
2023-04-24T06:48:31.595Z,0.90
2023-04-24T06:53:36.705Z,1.80
2023-04-24T06:58:44.213Z,2.50
2023-04-24T07:03:53.896Z,2.43
2023-04-24T07:09:07.138Z,4.03
2023-04-24T07:14:12.745Z,2.10
2023-04-24T07:19:20.937Z,1.60
2023-04-24T07:24:30.863Z,1.37
2023-04-24T07:29:37.154Z,1.40
2023-04-24T07:34:44.987Z,5.77
2023-04-24T07:39:50.210Z,0.90
2023-04-24T07:44:55.371Z,0.80
2023-04-24T07:50:04.215Z,1.43
2023-04-24T07:55:15.949Z,1.13
2023-04-24T08:00:23.646Z,2.63
2023-04-24T08:05:32.018Z,2.40
2023-04-24T08:16:19.674Z,0.77
2023-04-24T08:21:37.404Z,3.40
2023-04-24T08:26:42.593Z,2.40
2023-04-24T08:32:00.501Z,1.00
2023-04-24T08:37:09.981Z,0.73
2023-04-24T08:42:17.432Z,2.03
2023-04-24T08:47:31.658Z,0.80
2023-04-24T08:52:42.315Z,1.20
2023-04-24T08:57:55.487Z,0.60
2023-04-24T09:03:02.673Z,0.70
2023-04-24T09:08:14.865Z,1.00
2023-04-24T09:13:24.795Z,1.87
2023-04-24T09:18:31.598Z,1.07
2023-04-24T09:23:42.202Z,0.90
2023-04-24T09:28:47.523Z,0.80
2023-04-24T09:34:01.696Z,1.27
2023-04-24T09:39:16.775Z,1.37
2023-04-24T09:44:24.489Z,1.20
2023-04-24T09:49:31.760Z,0.97
2023-04-24T09:54:39.879Z,1.00
2023-04-24T09:59:49.827Z,1.03
2023-04-24T10:05:01.816Z,0.60
2023-04-24T10:10:12.615Z,0.93
2023-04-24T10:15:22.615Z,1.00
2023-04-24T10:20:31.947Z,0.80
2023-04-24T10:25:41.489Z,1.23
2023-04-24T10:30:49.760Z,1.00
2023-04-24T10:35:56.533Z,0.90
2023-04-24T10:41:17.416Z,1.00
2023-04-24T10:46:25.393Z,1.40
2023-04-24T10:51:49.416Z,0.80
2023-04-24T10:57:33.895Z,0.90
2023-04-24T11:02:41.602Z,0.60
2023-04-24T11:08:18.807Z,0.60
2023-04-24T11:13:30.871Z,0.73
2023-04-24T11:18:46.380Z,0.90
2023-04-24T11:23:52.108Z,0.50
2023-04-24T11:29:13.760Z,0.80
2023-04-24T11:34:19.767Z,1.10
2023-04-24T11:39:24.785Z,0.73
2023-04-24T11:44:42.304Z,0.73
2023-04-24T11:49:47.632Z,0.80
2023-04-24T11:54:55.398Z,0.70
2023-04-24T12:00:10.880Z,0.60
2023-04-24T12:05:32.372Z,0.97
2023-04-24T12:10:38.739Z,0.80
2023-04-24T12:15:47.256Z,0.67
2023-04-24T12:20:52.366Z,0.50
2023-04-24T12:25:57.941Z,0.70
2023-04-24T12:31:06.176Z,0.70
2023-04-24T12:36:14.195Z,0.60
2023-04-24T12:41:23.059Z,1.47
2023-04-24T12:46:30.990Z,0.83
2023-04-24T12:51:36.187Z,0.90
2023-04-24T12:56:44.672Z,0.70
2023-04-24T13:01:52.640Z,0.87
2023-04-24T13:06:59.673Z,1.10
2023-04-24T13:12:06.546Z,1.37
2023-04-24T13:17:14.280Z,0.80
2023-04-24T13:22:19.914Z,0.90
2023-04-24T13:27:25.055Z,0.90
2023-04-24T13:32:33.435Z,1.00
2023-04-24T13:37:40.159Z,0.90
2023-04-24T13:42:45.368Z,1.10
2023-04-24T13:47:53.634Z,0.80
2023-04-24T13:53:02.664Z,0.80
2023-04-24T13:58:08.733Z,1.00
2023-04-24T14:03:16.588Z,0.70
2023-04-24T14:08:21.837Z,1.00
2023-04-24T14:13:28.982Z,0.90
2023-04-24T14:18:37.391Z,0.80
2023-04-24T14:23:43.345Z,1.03
2023-04-24T14:28:48.709Z,0.90
2023-04-24T14:33:59.870Z,0.97
2023-04-24T14:39:08.136Z,1.00
2023-04-24T14:44:17.683Z,0.80
2023-04-24T14:49:27.530Z,1.33
2023-04-24T14:54:32.721Z,1.13
2023-04-24T14:59:38.457Z,0.93
2023-04-24T15:04:46.591Z,0.80
2023-04-24T15:09:52.077Z,0.87
2023-04-24T15:14:57.192Z,0.90
2023-04-24T15:20:07.482Z,0.90
2023-04-24T15:25:12.929Z,1.20
2023-04-24T15:30:18.386Z,0.83
2023-04-24T15:35:26.696Z,0.80
2023-04-24T15:40:32.152Z,1.10
2023-04-24T15:45:37.366Z,0.77
2023-04-24T15:50:44.970Z,0.80
2023-04-24T15:55:49.977Z,0.80
2023-04-24T16:00:55.283Z,0.83
2023-04-24T16:06:06.236Z,1.30
2023-04-24T16:11:11.821Z,1.40
2023-04-24T16:16:16.930Z,1.00
2023-04-24T16:21:24.684Z,1.27
2023-04-24T16:26:29.822Z,1.00
2023-04-24T16:31:34.894Z,1.20
2023-04-24T16:36:42.653Z,1.10
2023-04-24T16:41:47.708Z,0.70
2023-04-24T16:46:52.916Z,0.97
2023-04-24T16:52:00.916Z,1.00
2023-04-24T16:57:08.008Z,1.07
2023-04-24T17:02:13.505Z,1.10
2023-04-24T17:07:21.312Z,1.10
2023-04-24T17:12:28.761Z,1.00
2023-04-24T17:17:33.866Z,0.60
2023-04-24T17:22:43.428Z,1.00
2023-04-24T17:27:50.954Z,0.80
2023-04-24T17:32:56.116Z,1.20
2023-04-24T17:38:06.979Z,0.80
2023-04-24T17:43:12.763Z,1.10
2023-04-24T17:48:18.368Z,1.20
2023-04-24T17:53:26.360Z,0.90
2023-04-24T17:58:32.017Z,0.80
2023-04-24T18:03:38.598Z,0.80
2023-04-24T18:08:47.012Z,0.70
2023-04-24T18:13:52.172Z,0.70
2023-04-24T18:18:59.676Z,0.50
2023-04-24T18:24:08.205Z,0.80
2023-04-24T18:29:13.489Z,0.50
2023-04-24T18:34:18.668Z,0.80
2023-04-24T18:39:27.479Z,0.70
2023-04-24T18:44:32.577Z,0.80
2023-04-24T18:49:37.984Z,0.70
2023-04-24T18:54:48.445Z,0.60
2023-04-24T18:59:54.610Z,0.80
2023-04-24T19:04:59.800Z,0.87
2023-04-24T19:10:08.576Z,0.80
2023-04-24T19:15:14.579Z,0.70
2023-04-24T19:20:19.965Z,0.80
2023-04-24T19:25:32.332Z,0.97
2023-04-24T19:30:38.666Z,0.73
2023-04-24T19:35:43.776Z,0.80
2023-04-24T19:40:51.632Z,0.87
2023-04-24T19:45:58.194Z,1.27
2023-04-24T19:51:04.118Z,1.00
2023-04-24T19:56:11.797Z,0.90
2023-04-24T20:01:16.796Z,0.80
2023-04-24T20:06:22.137Z,1.10
2023-04-24T20:11:32.232Z,1.10
2023-04-24T20:16:38.903Z,1.10
2023-04-24T20:21:44.142Z,1.10
2023-04-24T20:26:52.481Z,1.20
2023-04-24T20:31:58.079Z,1.33
2023-04-24T20:37:04.239Z,1.47
2023-04-24T20:42:14.241Z,1.60
2023-04-24T20:47:19.944Z,0.97
2023-04-24T20:52:26.349Z,1.40
2023-04-24T20:57:34.277Z,1.80
2023-04-24T21:02:42.181Z,1.80
2023-04-24T21:07:47.457Z,1.70
2023-04-24T21:12:56.838Z,1.70
2023-04-24T21:18:02.092Z,2.23
2023-04-24T21:23:07.218Z,1.97
2023-04-24T21:28:15.135Z,1.80
2023-04-24T21:33:22.672Z,2.10
2023-04-24T21:38:28.227Z,2.13
2023-04-24T21:43:44.072Z,1.90
2023-04-24T21:48:50.605Z,2.20
2023-04-24T21:53:55.842Z,2.50
2023-04-24T21:59:03.750Z,2.33
2023-04-24T22:04:09.228Z,2.23
2023-04-24T22:09:14.642Z,2.17
2023-04-24T22:14:24.442Z,2.10
2023-04-24T22:19:30.418Z,2.23
2023-04-24T22:24:35.467Z,2.17
2023-04-24T22:29:43.184Z,2.97
2023-04-24T22:34:48.173Z,2.63
2023-04-24T22:39:53.178Z,2.70
2023-04-24T22:45:02.368Z,3.00
2023-04-24T22:50:08.854Z,2.43
2023-04-24T22:55:14.284Z,2.87
2023-04-24T23:00:24.009Z,2.90
2023-04-24T23:05:29.362Z,3.23
2023-04-24T23:10:34.521Z,2.80
2023-04-24T23:15:42.408Z,2.60
2023-04-24T23:20:48.317Z,3.10
2023-04-24T23:25:53.466Z,3.33
2023-04-24T23:31:01.934Z,3.20
2023-04-24T23:36:07.944Z,2.70
2023-04-24T23:41:13.521Z,3.03
2023-04-24T23:46:21.996Z,2.77
2023-04-24T23:51:27.529Z,3.03
2023-04-24T23:56:32.647Z,2.83
